Tiempo atmosférico en la estación meteorológica de Sopeira, Huesca (760 m.)



Fecha
DESCASC
Temp. máxima en grados centígrados (hora)
DESCASC
Temp. mínima en grados centígrados (hora)
DESCASC
Temp. media en grados centígrados
DESCASC
Racha de viento máxima en m/sg (hora)
DESCASC
Velocidad máxima media en intervalos de 10 minutos(hora)
DESCASC
Precipitaciones diarias en mm
DESCASC
Precipitaciones de 00:00 a 06:00 en mm
DESCASC
Precipitaciones de 06:00 a 12:00 en mm
DESCASC
Precipitaciones de 12:00 a 18:00 en mm
DESCASC
Precipitaciones de 18:00 a 24:00 en mm
DESCASC
17-10-2019 19.6 (16:40) 7.2 (08:10) 13.4 13.33 (06:10) 9.17 (08:40) 0 0 0 0 0
16-10-2019 18.8 (16:00) 6.7 (05:20) 12.7 10.83 (23:50) 8.33 (23:50) 0 0 0 0 0
15-10-2019 16.9 (16:50) 7.3 (09:00) 12.1 8.61 (23:20) 6.39 (23:30) 0.2 0 0.2 0 0
14-10-2019 17.4 (00:00) 12.3 (21:30) 14.8 13.33 (20:40) 8.61 (08:20) 22.6 0 0 5 17.6
13-10-2019 24.7 (15:20) 12.9 (00:00) 18.8 11.11 (08:20) 7.78 (08:20) 0 0 0 0 0
12-10-2019 24.6 (15:50) 13.1 (00:00) 18.9 10 (08:10) 7.78 (00:40) 0 0 0 0 0
11-10-2019 25.9 (16:20) 7.5 (00:00) 16.7 13.33 (05:10) 10 (07:40) 0 0 0 0 0
10-10-2019 22 (15:40) 9.5 (00:00) 15.8 10.28 (03:20) 7.5 (04:00) 0 0 0 0 0
09-10-2019 25 (16:00) 11.6 (00:00) 18.3 12.22 (07:00) 9.17 (05:40) 0 0 0 0 0
08-10-2019 25.8 (14:50) 12.1 (00:00) 18.9 10 (08:50) 6.39 (08:40) 0 0 0 0 0
07-10-2019 24.1 (18:00) 10.2 (00:00) 17.2 10 (01:00) 6.67 (07:20) 0 0 0 0 0
06-10-2019 22.8 (15:30) 10.1 (00:00) 16.4 11.67 (04:10) 8.33 (06:10) 0 0 0 0 0
05-10-2019 25.7 (15:40) 10.3 (00:00) 18 11.67 (03:00) 8.89 (05:10) 0 0 0 0 0
04-10-2019 25.3 (16:40) 7.7 (00:00) 16.5 13.33 (09:10) 9.72 (08:20) 0 0 0 0 0
03-10-2019 24.4 (16:10) 7.7 (00:00) 16 13.89 (07:30) 9.72 (06:30) 0 0 0 0 0
02-10-2019 22.4 (14:50) 9.6 (00:00) 16 12.78 (20:10) 8.06 (05:20) 0 0 0 0 0
01-10-2019 28.4 (15:20) 11.5 (00:00) 19.9 14.72 (05:00) 10.56 (06:10) 0 0 0 0 0
30-09-2019 28.8 (15:20) 11.3 (00:00) 20 13.89 (07:40) 10.28 (08:00) 0 0 0 0 0
29-09-2019 28.9 (16:00) 10.6 (00:00) 19.8 14.17 (08:50) 10.56 (08:00) 0 0 0 0 0
28-09-2019 25.9 (15:40) 10.6 (00:00) 18.3 13.33 (07:00) 9.72 (06:30) 0 0 0 0 0
27-09-2019 27.8 (14:40) 12.1 (00:00) 19.9 11.94 (07:50) 9.17 (08:30) 0 0 0 0 0
26-09-2019 26 (16:10) 11.3 (00:00) 18.7 11.39 (07:50) 8.33 (08:30) 0 0 0 0 0
25-09-2019 24.1 (15:00) 13.1 (00:00) 18.6 11.11 (02:40) 7.5 (01:30) 0 0 0 0 0
24-09-2019 26.7 (15:40) 11 (00:00) 18.9 12.78 (02:30) 8.61 (01:40) 0 0 0 0 0
23-09-2019 23.1 (14:50) 11 (00:00) 17.1 10.56 (03:20) 7.78 (03:30) 0 0 0 0 0
22-09-2019 22.9 (15:10) 14.7 (00:00) 18.8 8.06 (04:00) 5.56 (23:10) 0 0 0 0 0
21-09-2019 23.7 (14:20) 15.6 (00:00) 19.7 9.72 (09:20) 6.11 (10:20) 3.2 0 0.8 2.4 0
20-09-2019 25.5 (15:40) 14.5 (00:00) 20 11.39 (07:20) 8.33 (05:50) 0 0 0 0 0
19-09-2019 26.9 (14:40) 14.2 (00:00) 20.5 12.22 (16:30) 8.89 (02:40) 6.4 0 0 6 0.4
18-09-2019 29 (13:20) 16 (00:00) 22.5 12.78 (08:10) 9.17 (07:40) 0 0 0 0 0

Gráficas

Temp. máximas Temp. mínimas Temp. medias Precipitaciones Rachas de viento máximas Velocidades máximas media en intervalos de 10 minutos

Datos horarios

Fecha y hora oficial Temperatura (ºC) Velocidad del viento (km/h) Dirección del viento Racha (km/h) Dirección de racha Precipitación (mm) Presión (hPa) Tendencia (hPa) Humedad (%)
2019-10-17 23:00:00 11.5 26 Noroeste 36 Noroeste 0 -- -- 75
2019-10-17 22:00:00 12.7 14 Noroeste 22 Noroeste 0 -- -- 70
2019-10-17 21:00:00 13.9 15 Noroeste 28 Noroeste 0 -- -- 64
2019-10-17 20:00:00 15.6 6 Noroeste 9 Noroeste 0 -- -- 56
2019-10-17 19:00:00 17.4 8 Sur 15 Sudoeste 0 -- -- 49
2019-10-17 18:00:00 18.5 8 Sur 15 Sur 0 -- -- 41
2019-10-17 17:00:00 19.5 7 Sur 17 Sur 0 -- -- 40
2019-10-17 16:00:00 19.2 8 Sudoeste 15 Sur 0 -- -- 41
2019-10-17 15:00:00 19.3 4 Sudeste 10 Sur 0 -- -- 45
2019-10-17 14:00:00 17.9 6 Sur 9 Sur 0 -- -- 51
2019-10-17 13:00:00 14.4 4 Noroeste 17 Noroeste 0 -- -- 64
2019-10-17 12:00:00 12.5 10 Noroeste 28 Oeste 0 -- -- 71
2019-10-17 11:00:00 10.7 19 Noroeste 32 Noroeste 0 -- -- 74
2019-10-17 10:00:00 8.1 20 Noroeste 39 Noroeste 0 -- -- 84
2019-10-17 09:00:00 7.3 31 Noroeste 42 Noroeste 0 -- -- 86
2019-10-17 08:00:00 7.3 33 Noroeste 40 Noroeste 0 -- -- 86
2019-10-17 07:00:00 7.3 27 Noroeste 48 Noroeste 0 -- -- 87
2019-10-17 06:00:00 7.6 23 Noroeste 40 Noroeste 0 -- -- 87
2019-10-17 05:00:00 8 22 Noroeste 41 Noroeste 0 -- -- 86
2019-10-17 04:00:00 8.4 30 Noroeste 42 Noroeste 0 -- -- 84
2019-10-17 03:00:00 8.7 30 Noroeste 42 Noroeste 0 -- -- 84
2019-10-17 02:00:00 9.1 29 Noroeste 42 Noroeste 0 -- -- 83
2019-10-17 01:00:00 9.5 28 Noroeste 40 Noroeste 0 -- -- 82
2019-10-17 00:00:00 10.2 27 Noroeste 39 Noroeste 0 -- -- 79
2019-10-16 23:00:00 10.9 26 Noroeste 33 Noroeste 0 -- -- 77
2019-10-16 22:00:00 11.8 19 Noroeste 26 Noroeste 0 -- -- 74
2019-10-16 21:00:00 13 10 Noroeste 15 Noroeste 0 -- -- 67
2019-10-16 20:00:00 14.7 2 Este 15 Sudeste 0 -- -- 56
2019-10-16 19:00:00 16.1 6 Sur 18 Sudoeste 0 -- -- 53
2019-10-16 18:00:00 18.1 6 Sudoeste 17 Sudoeste 0 -- -- 46
2019-10-16 17:00:00 17.8 5 Sudeste 15 Sudoeste 0 -- -- 48
2019-10-16 16:00:00 18.8 5 Este 17 Sur 0 -- -- 45
2019-10-16 15:00:00 18 6 Sur 17 Sur 0 -- -- 45
2019-10-16 14:00:00 18 7 Sur 15 Sur 0 -- -- 45
2019-10-16 13:00:00 17 9 Sur 14 Sudoeste 0 -- -- 52
2019-10-16 12:00:00 14.2 4 Sudeste 19 Noroeste 0 -- -- 63
2019-10-16 11:00:00 9.8 15 Noroeste 31 Noroeste 0 -- -- 75
2019-10-16 10:00:00 7.4 21 Noroeste 32 Noroeste 0 -- -- 85
2019-10-16 09:00:00 6.8 24 Noroeste 36 Noroeste 0 -- -- 87
2019-10-16 08:00:00 6.8 22 Noroeste 33 Noroeste 0 -- -- 87
2019-10-16 07:00:00 6.9 21 Noroeste 36 Noroeste 0 -- -- 86
2019-10-16 06:00:00 6.7 19 Noroeste 33 Noroeste 0 -- -- 88
2019-10-16 05:00:00 6.8 24 Noroeste 34 Noroeste 0 -- -- 88
2019-10-16 04:00:00 7.1 20 Noroeste 32 Noroeste 0 -- -- 87
2019-10-16 03:00:00 7.3 23 Noroeste 35 Noroeste 0 -- -- 86
2019-10-16 02:00:00 7.8 22 Noroeste 33 Noroeste 0 -- -- 85
2019-10-16 01:00:00 8.3 21 Noroeste 30 Noroeste 0 -- -- 85
2019-10-16 00:00:00 9 18 Noroeste 31 Noroeste 0 -- -- 82
2019-10-15 23:00:00 9.9 19 Noroeste 28 Noroeste 0 -- -- 78
2019-10-15 22:00:00 10.8 22 Noroeste 30 Noroeste 0 -- -- 74
2019-10-15 21:00:00 12.1 11 Noroeste 21 Noroeste 0 -- -- 64
2019-10-15 20:00:00 13.6 4 Sudeste 14 Sur 0 -- -- 56
2019-10-15 19:00:00 14.9 4 Sur 13 Sur 0 -- -- 53
2019-10-15 18:00:00 16.3 9 Sur 21 Sur 0 -- -- 46
2019-10-15 17:00:00 16.7 8 Sur 15 Sur 0 -- -- 47
2019-10-15 16:00:00 16.7 7 Sur 15 Sur 0 -- -- 48
2019-10-15 15:00:00 15.9 8 Sur 18 Sudoeste 0 -- -- 52
2019-10-15 14:00:00 15.6 10 Sudeste 19 Sur 0 -- -- 58
2019-10-15 13:00:00 14.4 8 Sudeste 15 Sudeste 0 -- -- 62
2019-10-15 12:00:00 12.4 10 Sur 16 Nordeste 0 -- -- 69
2019-10-15 11:00:00 11 6 Sudeste 12 Sur 0 -- -- 81
2019-10-15 10:00:00 7.6 3 Este 18 Noroeste 0.2 -- -- 89
2019-10-15 09:00:00 7.3 0 Calma 15 Noroeste 0 -- -- 89
2019-10-15 08:00:00 7.8 10 Noroeste 18 Noroeste 0 -- -- 89
2019-10-15 07:00:00 8.1 3 Este 10 Oeste 0 -- -- 86
2019-10-15 06:00:00 9.1 5 Sur 15 Sur 0 -- -- 85
2019-10-15 05:00:00 9.8 7 Sur 14 Sur 0 -- -- 86
2019-10-15 04:00:00 10.5 7 Sur 19 Sur 0 -- -- 89
2019-10-15 03:00:00 11.8 7 Sur 17 Sudeste 0 -- -- 92
2019-10-15 02:00:00 11.9 4 Sur 22 Sur 0 -- -- 93
2019-10-15 01:00:00 12.4 4 Sur 19 Noroeste 0 -- -- 91
2019-10-15 00:00:00 12.6 4 Nordeste 26 Noroeste 0 -- -- 89
2019-10-14 23:00:00 12.5 4 Norte 16 Noroeste 0 -- -- 91
2019-10-14 22:00:00 12.4 6 Noroeste 18 Oeste 5.6 -- -- 90
2019-10-14 21:00:00 12.5 7 Sudeste 48 Sudoeste 11.8 -- -- 86
2019-10-14 20:00:00 15.9 12 Oeste 27 Noroeste 0.2 -- -- 78
2019-10-14 19:00:00 16 21 Noroeste 36 Noroeste 0 -- -- 78
2019-10-14 18:00:00 16.1 21 Noroeste 33 Noroeste 0.2 -- -- 78
2019-10-14 17:00:00 15.4 8 Sudoeste 17 Sur 1.8 -- -- 86
2019-10-14 16:00:00 15.8 4 Sudoeste 15 Noroeste 2.2 -- -- 89
2019-10-14 15:00:00 16.1 2 Noroeste 6 Noroeste 0.2 -- -- 85
2019-10-14 14:00:00 15.7 2 Sudoeste 14 Noroeste 0.6 -- -- 85
2019-10-14 13:00:00 15.9 7 Noroeste 28 Noroeste 0 -- -- 76
2019-10-14 12:00:00 16.2 14 Noroeste 30 Noroeste 0 -- -- 71
2019-10-14 11:00:00 14.6 23 Noroeste 37 Noroeste 0 -- -- 76
2019-10-14 10:00:00 13.5 23 Noroeste 37 Noroeste 0 -- -- 81
2019-10-14 09:00:00 12.7 24 Noroeste 40 Noroeste 0 -- -- 83
2019-10-14 08:00:00 12.9 26 Noroeste 42 Noroeste 0 -- -- 83
2019-10-14 07:00:00 13.5 27 Noroeste 40 Noroeste 0 -- -- 82
2019-10-14 06:00:00 13.9 21 Noroeste 39 Noroeste 0 -- -- 82
2019-10-14 05:00:00 14.1 22 Noroeste 36 Noroeste 0 -- -- 82
2019-10-14 04:00:00 14.5 25 Noroeste 32 Noroeste 0 -- -- 83
2019-10-14 03:00:00 15 19 Noroeste 25 Noroeste 0 -- -- 82
2019-10-14 02:00:00 15.9 7 Noroeste 20 Noroeste 0 -- -- 81
2019-10-14 01:00:00 16.7 7 Noroeste 13 Noroeste 0 -- -- 79
2019-10-14 00:00:00 17.4 2 Sudeste 10 Este 0 -- -- 77
2019-10-13 23:00:00 18.3 6 Este 24 Sudoeste 0 -- -- 73
2019-10-13 22:00:00 19.8 14 Sudoeste 30 Sudoeste 0 -- -- 69
2019-10-13 21:00:00 20.4 6 Sur 17 Sudoeste 0 -- -- 63
2019-10-13 20:00:00 21.5 8 Este 23 Sudoeste 0 -- -- 57
2019-10-13 19:00:00 22.8 18 Sudoeste 27 Sur 0 -- -- 50
2019-10-13 18:00:00 23.6 11 Sur 22 Sudoeste 0 -- -- 46
2019-10-13 17:00:00 24.1 5 Sur 21 Sur 0 -- -- 46
2019-10-13 16:00:00 24 3 Oeste 18 Sudoeste 0 -- -- 46
2019-10-13 15:00:00 24.2 8 Sudoeste 23 Sudoeste 0 -- -- 46
2019-10-13 14:00:00 24 12 Sudoeste 19 Sur 0 -- -- 46
2019-10-13 13:00:00 23.2 10 Sur 17 Sur 0 -- -- 49
2019-10-13 12:00:00 19.9 10 Noroeste 19 Noroeste 0 -- -- 60
2019-10-13 11:00:00 16.4 16 Noroeste 30 Noroeste 0 -- -- 75
2019-10-13 10:00:00 15 23 Noroeste 31 Noroeste 0 -- -- 79
2019-10-13 09:00:00 13.8 25 Noroeste 40 Noroeste 0 -- -- 84
2019-10-13 08:00:00 13.3 23 Noroeste 37 Noroeste 0 -- -- 85
2019-10-13 07:00:00 13.1 21 Noroeste 35 Noroeste 0 -- -- 86
2019-10-13 06:00:00 13 22 Noroeste 33 Noroeste 0 -- -- 87
2019-10-13 05:00:00 13.4 19 Noroeste 27 Noroeste 0 -- -- 86
2019-10-13 04:00:00 13.7 14 Noroeste 22 Noroeste 0 -- -- 85
2019-10-13 03:00:00 14.4 16 Noroeste 29 Noroeste 0 -- -- 82
2019-10-13 02:00:00 15 17 Noroeste 30 Noroeste 0 -- -- 80
2019-10-13 01:00:00 15.5 19 Noroeste 27 Noroeste 0 -- -- 79
2019-10-13 00:00:00 16.4 16 Noroeste 22 Noroeste 0 -- -- 76
2019-10-12 23:00:00 17.1 10 Noroeste 15 Noroeste 0 -- -- 74
2019-10-12 22:00:00 18.8 3 Oeste 11 Oeste 0 -- -- 67
2019-10-12 21:00:00 19.9 5 Oeste 15 Sudoeste 0 -- -- 63
2019-10-12 20:00:00 21.2 9 Sur 17 Sur 0 -- -- 58
2019-10-12 19:00:00 22 4 Nordeste 23 Sur 0 -- -- 56
2019-10-12 18:00:00 22.8 13 Sur 24 Sur 0 -- -- 53
2019-10-12 17:00:00 23.4 8 Sur 24 Sur 0 -- -- 51
2019-10-12 16:00:00 24.3 16 Sudoeste 27 Sur 0 -- -- 48
2019-10-12 15:00:00 24.2 14 Sudoeste 28 Sur 0 -- -- 47
2019-10-12 14:00:00 23.7 13 Sur 22 Sur 0 -- -- 51
2019-10-12 13:00:00 21.9 8 Sur 13 Sudoeste 0 -- -- 58
2019-10-12 12:00:00 17.9 7 Noroeste 19 Noroeste 0 -- -- 68
2019-10-12 11:00:00 15.9 15 Noroeste 27 Noroeste 0 -- -- 72
2019-10-12 10:00:00 14.2 15 Noroeste 35 Noroeste 0 -- -- 78
2019-10-12 09:00:00 13.3 25 Noroeste 36 Noroeste 0 -- -- 81
2019-10-12 08:00:00 13.2 26 Noroeste 33 Noroeste 0 -- -- 83
2019-10-12 07:00:00 13.2 23 Noroeste 31 Noroeste 0 -- -- 82
2019-10-12 06:00:00 13.5 16 Noroeste 35 Noroeste 0 -- -- 81
2019-10-12 05:00:00 13.8 17 Noroeste 26 Noroeste 0 -- -- 80
2019-10-12 04:00:00 14.4 13 Noroeste 28 Noroeste 0 -- -- 78
2019-10-12 03:00:00 14.8 14 Noroeste 32 Noroeste 0 -- -- 76
2019-10-12 02:00:00 15.9 15 Noroeste 35 Noroeste 0 -- -- 70
2019-10-12 01:00:00 16.1 24 Noroeste 35 Noroeste 0 -- -- 69
2019-10-12 00:00:00 16.2 27 Noroeste 35 Noroeste 0 -- -- 70
2019-10-11 23:00:00 17.1 21 Noroeste 31 Noroeste 0 -- -- 67
2019-10-11 22:00:00 18.1 17 Noroeste 26 Noroeste 0 -- -- 64
2019-10-11 21:00:00 19.4 13 Noroeste 18 Noroeste 0 -- -- 59
2019-10-11 20:00:00 21.7 0 Calma 18 Sur 0 -- -- 55
2019-10-11 19:00:00 23.5 12 Sur 21 Sur 0 -- -- 50
2019-10-11 18:00:00 24.9 13 Sur 23 Sur 0 -- -- 44
2019-10-11 17:00:00 25.5 16 Sur 24 Sur 0 -- -- 42
2019-10-11 16:00:00 25.4 9 Sur 19 Sudoeste 0 -- -- 40
2019-10-11 15:00:00 25.1 9 Sur 18 Sudoeste 0 -- -- 34
2019-10-11 14:00:00 24 11 Sudeste 18 Sur 0 -- -- 35
2019-10-11 13:00:00 21.7 8 Sudeste 12 Sudeste 0 -- -- 40
2019-10-11 12:00:00 17.5 4 Sudeste 26 Noroeste 0 -- -- 50
2019-10-11 11:00:00 12.3 16 Norte 42 Noroeste 0 -- -- 63
2019-10-11 10:00:00 9.6 30 Noroeste 47 Noroeste 0 -- -- 73
2019-10-11 09:00:00 7.7 35 Noroeste 47 Noroeste 0 -- -- 80
2019-10-11 08:00:00 7.7 34 Noroeste 45 Noroeste 0 -- -- 80
2019-10-11 07:00:00 8 28 Noroeste 42 Noroeste 0 -- -- 80
2019-10-11 06:00:00 8.3 31 Noroeste 48 Noroeste 0 -- -- 78
2019-10-11 05:00:00 9 32 Noroeste 46 Noroeste 0 -- -- 75
2019-10-11 04:00:00 9 28 Noroeste 44 Noroeste 0 -- -- 76
2019-10-11 03:00:00 9.9 28 Noroeste 39 Noroeste 0 -- -- 72
2019-10-11 02:00:00 10.2 27 Noroeste 37 Noroeste 0 -- -- 72
2019-10-11 01:00:00 11 24 Noroeste 33 Noroeste 0 -- -- 70
2019-10-11 00:00:00 12.2 22 Noroeste 33 Noroeste 0 -- -- 63
2019-10-10 23:00:00 13.1 19 Noroeste 28 Noroeste 0 -- -- 62
2019-10-10 22:00:00 14.3 11 Noroeste 15 Noroeste 0 -- -- 57
2019-10-10 21:00:00 15.6 2 Sur 9 Sudoeste 0 -- -- 50
2019-10-10 20:00:00 17.4 5 Sur 21 Sudoeste 0 -- -- 44
2019-10-10 19:00:00 18.9 17 Sur 23 Sudoeste 0 -- -- 40
2019-10-10 18:00:00 20.6 15 Sur 22 Sur 0 -- -- 36
2019-10-10 17:00:00 21.4 16 Sur 27 Sur 0 -- -- 36
2019-10-10 16:00:00 21.8 12 Sur 24 Sudoeste 0 -- -- 36
2019-10-10 15:00:00 20.9 14 Sudoeste 25 Sur 0 -- -- 36
2019-10-10 14:00:00 20.5 14 Sur 23 Sur 0 -- -- 41
2019-10-10 13:00:00 20 12 Sur 18 Sur 0 -- -- 43
2019-10-10 12:00:00 19.1 7 Sur 11 Sudeste 0 -- -- 56
2019-10-10 11:00:00 13.7 5 Noroeste 19 Noroeste 0 -- -- 72
2019-10-10 10:00:00 10.6 17 Noroeste 26 Noroeste 0 -- -- 83
2019-10-10 09:00:00 9.5 14 Noroeste 35 Noroeste 0 -- -- 86
2019-10-10 08:00:00 9.7 25 Noroeste 36 Noroeste 0 -- -- 87
2019-10-10 07:00:00 10.3 17 Noroeste 28 Noroeste 0 -- -- 86
2019-10-10 06:00:00 10.7 20 Noroeste 34 Noroeste 0 -- -- 85
2019-10-10 05:00:00 11.2 19 Noroeste 34 Noroeste 0 -- -- 83
2019-10-10 04:00:00 11.6 27 Noroeste 37 Noroeste 0 -- -- 83
2019-10-10 03:00:00 12.5 22 Noroeste 35 Noroeste 0 -- -- 81
2019-10-10 02:00:00 13.2 25 Noroeste 33 Noroeste 0 -- -- 78
2019-10-10 01:00:00 14.1 16 Noroeste 28 Noroeste 0 -- -- 75
2019-10-10 00:00:00 15 19 Noroeste 27 Noroeste 0 -- -- 72
2019-10-09 23:00:00 16.2 12 Noroeste 17 Noroeste 0 -- -- 66
2019-10-09 22:00:00 17.8 4 Sudoeste 13 Sudoeste 0 -- -- 62
2019-10-09 21:00:00 18.7 8 Sudeste 18 Sudeste 0 -- -- 61
2019-10-09 20:00:00 20.1 14 Sur 23 Sur 0 -- -- 60
2019-10-09 19:00:00 20.9 10 Sudeste 23 Sur 0 -- -- 57
2019-10-09 18:00:00 22.4 14 Sudeste 31 Sur 0 -- -- 54
2019-10-09 17:00:00 23.7 10 Sudeste 31 Sur 0 -- -- 49
2019-10-09 16:00:00 25 8 Sur 24 Sur 0 -- -- 44
2019-10-09 15:00:00 23.9 9 Nordeste 21 Sur 0 -- -- 49
2019-10-09 14:00:00 23.4 14 Sur 21 Sur 0 -- -- 52
2019-10-09 13:00:00 23.4 10 Sur 18 Sur 0 -- -- 51
2019-10-09 12:00:00 20.1 12 Sur 18 Sudoeste 0 -- -- 55
2019-10-09 11:00:00 17.7 4 Sudeste 22 Noroeste 0 -- -- 60
2019-10-09 10:00:00 13.5 17 Noroeste 38 Noroeste 0 -- -- 73
2019-10-09 09:00:00 11.8 29 Noroeste 42 Noroeste 0 -- -- 79
2019-10-09 08:00:00 11.8 26 Noroeste 42 Noroeste 0 -- -- 78
2019-10-09 07:00:00 11.6 30 Noroeste 44 Noroeste 0 -- -- 79
2019-10-09 06:00:00 12 30 Noroeste 43 Noroeste 0 -- -- 77
2019-10-09 05:00:00 12.5 30 Noroeste 39 Noroeste 0 -- -- 76
2019-10-09 04:00:00 12.9 29 Noroeste 40 Noroeste 0 -- -- 74
2019-10-09 03:00:00 13.6 26 Noroeste 40 Noroeste 0 -- -- 72
2019-10-09 02:00:00 13.9 26 Noroeste 35 Noroeste 0 -- -- 71
2019-10-09 01:00:00 14.8 22 Noroeste 36 Noroeste 0 -- -- 68
2019-10-09 00:00:00 15.9 22 Noroeste 33 Noroeste 0 -- -- 63
2019-10-08 23:00:00 16.9 19 Noroeste 28 Noroeste 0 -- -- 61
2019-10-08 22:00:00 18.1 16 Noroeste 24 Noroeste 0 -- -- 57
2019-10-08 21:00:00 19.9 2 Oeste 8 Noroeste 0 -- -- 51
2019-10-08 20:00:00 21.8 0 Calma 12 Sur 0 -- -- 44
2019-10-08 19:00:00 23.5 11 Sur 19 Sur 0 -- -- 41
2019-10-08 18:00:00 25 12 Sur 21 Sur 0 -- -- 36
2019-10-08 17:00:00 25.4 14 Sur 23 Sur 0 -- -- 34
2019-10-08 16:00:00 25.7 15 Sur 23 Sur 0 -- -- 33
2019-10-08 15:00:00 25.5 16 Sur 26 Sur 0 -- -- 32
2019-10-08 14:00:00 24.9 13 Sur 21 Sur 0 -- -- 36
2019-10-08 13:00:00 24 6 Sur 13 Sudeste 0 -- -- 37
2019-10-08 12:00:00 21.1 8 Sudeste 18 Sur 0 -- -- 44
2019-10-08 11:00:00 16.8 7 Noroeste 31 Noroeste 0 -- -- 57
2019-10-08 10:00:00 14.1 19 Noroeste 33 Noroeste 0 -- -- 64
2019-10-08 09:00:00 12.2 19 Noroeste 36 Noroeste 0 -- -- 72
2019-10-08 08:00:00 12.5 21 Noroeste 33 Noroeste 0 -- -- 72
2019-10-08 07:00:00 13 18 Noroeste 30 Noroeste 0 -- -- 69
2019-10-08 06:00:00 13.7 16 Noroeste 29 Noroeste 0 -- -- 68
2019-10-08 05:00:00 14.4 15 Noroeste 25 Noroeste 0 -- -- 64
2019-10-08 04:00:00 15.1 9 Noroeste 30 Noroeste 0 -- -- 59
2019-10-08 03:00:00 15.9 20 Noroeste 31 Noroeste 0 -- -- 58
2019-10-08 02:00:00 16.1 19 Noroeste 31 Noroeste 0 -- -- 56
2019-10-08 01:00:00 16.4 14 Noroeste 24 Noroeste 0 -- -- 54
2019-10-08 00:00:00 17.6 17 Noroeste 26 Oeste 0 -- -- 50
2019-10-07 23:00:00 17.9 4 Norte 12 Noroeste 0 -- -- 47
2019-10-07 22:00:00 19.2 0 Calma 10 Noroeste 0 -- -- 43
2019-10-07 21:00:00 20.3 2 Nordeste 9 Oeste 0 -- -- 37
2019-10-07 20:00:00 21.7 4 Sur 6 Noroeste 0 -- -- 30
2019-10-07 19:00:00 22.9 0 Calma 8 Sur 0 -- -- 27
2019-10-07 18:00:00 24.1 4 Sur 15 Sudoeste 0 -- -- 25
2019-10-07 17:00:00 23.8 9 Sur 24 Sur 0 -- -- 24
2019-10-07 16:00:00 23.4 6 Este 14 Sur 0 -- -- 26
2019-10-07 15:00:00 22.6 7 Este 21 Sudoeste 0 -- -- 27
2019-10-07 14:00:00 23.5 9 Sur 17 Sudoeste 0 -- -- 22
2019-10-07 13:00:00 22.4 8 Sur 17 Sur 0 -- -- 24
2019-10-07 12:00:00 19.1 4 Sudeste 14 Noroeste 0 -- -- 30
2019-10-07 11:00:00 13.1 13 Noroeste 27 Noroeste 0 -- -- 41
2019-10-07 10:00:00 11.5 21 Noroeste 31 Noroeste 0 -- -- 46
2019-10-07 09:00:00 10.2 22 Noroeste 32 Noroeste 0 -- -- 54
2019-10-07 08:00:00 10.9 17 Noroeste 33 Noroeste 0 -- -- 52
2019-10-07 07:00:00 11.8 18 Noroeste 30 Noroeste 0 -- -- 46
2019-10-07 06:00:00 12.4 14 Noroeste 24 Noroeste 0 -- -- 48
2019-10-07 05:00:00 14.1 13 Noroeste 23 Norte 0 -- -- 41
2019-10-07 04:00:00 15.5 12 Norte 32 Noroeste 0 -- -- 35
2019-10-07 03:00:00 16 15 Norte 35 Noroeste 0 -- -- 35
2019-10-07 02:00:00 16.8 10 Norte 30 Este 0 -- -- 35
2019-10-07 01:00:00 17.4 16 Norte 36 Noroeste 0 -- -- 36
2019-10-07 00:00:00 16.5 8 Norte 33 Noroeste 0 -- -- 48
2019-10-06 23:00:00 15.8 24 Noroeste 34 Noroeste 0 -- -- 61
2019-10-06 22:00:00 17.4 14 Noroeste 25 Noroeste 0 -- -- 56
2019-10-06 21:00:00 18.4 7 Norte 23 Noroeste 0 -- -- 53
2019-10-06 20:00:00 19.3 5 Noroeste 11 Noroeste 0 -- -- 50
2019-10-06 19:00:00 20.4 7 Sur 20 Sudoeste 0 -- -- 48
2019-10-06 18:00:00 21 13 Sur 25 Sur 0 -- -- 48
2019-10-06 17:00:00 22.3 11 Sur 26 Sur 0 -- -- 47
2019-10-06 16:00:00 21.5 17 Sur 25 Sur 0 -- -- 52
2019-10-06 15:00:00 22.3 11 Sur 19 Sudoeste 0 -- -- 48
2019-10-06 14:00:00 20.8 10 Sur 17 Sudoeste 0 -- -- 52
2019-10-06 13:00:00 20.5 7 Sur 14 Sur 0 -- -- 52
2019-10-06 12:00:00 18.1 6 Sur 22 Noroeste 0 -- -- 58
2019-10-06 11:00:00 13.3 11 Noroeste 29 Noroeste 0 -- -- 72
2019-10-06 10:00:00 11.3 21 Noroeste 38 Noroeste 0 -- -- 80
2019-10-06 09:00:00 10.1 27 Noroeste 41 Noroeste 0 -- -- 84
2019-10-06 08:00:00 10.2 27 Noroeste 40 Noroeste 0 -- -- 84
2019-10-06 07:00:00 10.6 29 Noroeste 40 Noroeste 0 -- -- 84
2019-10-06 06:00:00 10.9 29 Noroeste 41 Noroeste 0 -- -- 83
2019-10-06 05:00:00 11.5 28 Noroeste 42 Oeste 0 -- -- 82
2019-10-06 04:00:00 11.8 29 Noroeste 39 Noroeste 0 -- -- 82
2019-10-06 03:00:00 12.5 26 Noroeste 37 Noroeste 0 -- -- 79
2019-10-06 02:00:00 13.3 27 Noroeste 39 Noroeste 0 -- -- 77
2019-10-06 01:00:00 14.1 26 Noroeste 35 Noroeste 0 -- -- 74
2019-10-06 00:00:00 15 21 Noroeste 31 Noroeste 0 -- -- 72
2019-10-05 23:00:00 16.2 13 Noroeste 21 Noroeste 0 -- -- 67
2019-10-05 22:00:00 17.4 6 Noroeste 9 Noroeste 0 -- -- 62
2019-10-05 21:00:00 18.7 0 Calma 10 Sur 0 -- -- 57
2019-10-05 20:00:00 20 6 Sur 20 Sur 0 -- -- 53
2019-10-05 19:00:00 21.8 15 Sur 24 Sur 0 -- -- 49
2019-10-05 18:00:00 23.2 17 Sur 27 Sur 0 -- -- 46
2019-10-05 17:00:00 24.7 18 Sur 31 Sur 0 -- -- 43
2019-10-05 16:00:00 24.8 20 Sur 28 Sudoeste 0 -- -- 42
2019-10-05 15:00:00 25.2 9 Sur 20 Sudoeste 0 -- -- 41
2019-10-05 14:00:00 24.3 11 Sur 19 Sur 0 -- -- 44
2019-10-05 13:00:00 23.2 9 Sur 13 Sur 0 -- -- 47
2019-10-05 12:00:00 20.8 6 Sudeste 15 Noroeste 0 -- -- 51
2019-10-05 11:00:00 14.8 12 Noroeste 34 Noroeste 0 -- -- 68
2019-10-05 10:00:00 11.9 21 Noroeste 37 Noroeste 0 -- -- 78
2019-10-05 09:00:00 10.3 31 Noroeste 42 Noroeste 0 -- -- 85
2019-10-05 08:00:00 10.4 28 Noroeste 41 Noroeste 0 -- -- 86
2019-10-05 07:00:00 11 28 Noroeste 40 Noroeste 0 -- -- 84
2019-10-05 06:00:00 11.5 27 Noroeste 39 Noroeste 0 -- -- 83
2019-10-05 05:00:00 12.1 27 Noroeste 41 Noroeste 0 -- -- 82
2019-10-05 04:00:00 12.8 27 Noroeste 40 Noroeste 0 -- -- 80
2019-10-05 03:00:00 13.6 28 Noroeste 42 Noroeste 0 -- -- 77
2019-10-05 02:00:00 14 25 Noroeste 38 Noroeste 0 -- -- 77
2019-10-05 01:00:00 14.8 20 Noroeste 34 Noroeste 0 -- -- 75
2019-10-05 00:00:00 15.7 21 Noroeste 33 Noroeste 0 -- -- 72
2019-10-04 23:00:00 17 14 Noroeste 27 Noroeste 0 -- -- 67
2019-10-04 22:00:00 18.2 13 Noroeste 17 Noroeste 0 -- -- 63
2019-10-04 21:00:00 20.3 0 Calma 9 Sudeste 0 -- -- 56
2019-10-04 20:00:00 21.3 7 Sudeste 24 Sudeste 0 -- -- 53
2019-10-04 19:00:00 22.3 6 Este 21 Sur 0 -- -- 50
2019-10-04 18:00:00 24 13 Sur 27 Sudoeste 0 -- -- 38
2019-10-04 17:00:00 24.9 10 Sur 23 Sudoeste 0 -- -- 34
2019-10-04 16:00:00 25.1 13 Sur 25 Sudoeste 0 -- -- 29
2019-10-04 15:00:00 24.6 12 Sur 28 Sudoeste 0 -- -- 31
2019-10-04 14:00:00 24 11 Sur 24 Sur 0 -- -- 34
2019-10-04 13:00:00 23.2 8 Sudeste 13 Sur 0 -- -- 35
2019-10-04 12:00:00 18.2 4 Este 18 Noroeste 0 -- -- 43
2019-10-04 11:00:00 13.4 17 Noroeste 38 Oeste 0 -- -- 52
2019-10-04 10:00:00 9.6 24 Noroeste 48 Noroeste 0 -- -- 66
2019-10-04 09:00:00 7.7 32 Noroeste 45 Noroeste 0 -- -- 75
2019-10-04 08:00:00 7.7 32 Noroeste 45 Noroeste 0 -- -- 75
2019-10-04 07:00:00 8 32 Noroeste 46 Noroeste 0 -- -- 75
2019-10-04 06:00:00 8.4 30 Noroeste 43 Noroeste 0 -- -- 75
2019-10-04 05:00:00 9.2 31 Noroeste 45 Noroeste 0 -- -- 72
2019-10-04 04:00:00 9.7 30 Noroeste 43 Noroeste 0 -- -- 71
2019-10-04 03:00:00 10.7 28 Noroeste 45 Noroeste 0 -- -- 66
2019-10-04 02:00:00 11.2 33 Noroeste 43 Noroeste 0 -- -- 65
2019-10-04 01:00:00 12.2 30 Noroeste 40 Noroeste 0 -- -- 64
2019-10-04 00:00:00 13.4 28 Noroeste 39 Noroeste 0 -- -- 59
2019-10-03 23:00:00 14.7 24 Noroeste 33 Noroeste 0 -- -- 56
2019-10-03 22:00:00 16 20 Noroeste 29 Noroeste 0 -- -- 54
2019-10-03 21:00:00 17.8 7 Noroeste 15 Noroeste 0 -- -- 49
2019-10-03 20:00:00 19.3 5 Sudeste 16 Sur 0 -- -- 44
2019-10-03 19:00:00 21.2 6 Sur 19 Sur 0 -- -- 39
2019-10-03 18:00:00 23.6 12 Sur 20 Sur 0 -- -- 28
2019-10-03 17:00:00 24.3 11 Sur 25 Sur 0 -- -- 25
2019-10-03 16:00:00 24.2 6 Sur 18 Sudoeste 0 -- -- 26
2019-10-03 15:00:00 23.2 10 Sur 21 Sur 0 -- -- 29
2019-10-03 14:00:00 22.1 10 Sur 15 Sudoeste 0 -- -- 29
2019-10-03 13:00:00 17.9 4 Este 25 Noroeste 0 -- -- 37
2019-10-03 12:00:00 12.4 18 Noroeste 35 Noroeste 0 -- -- 46
2019-10-03 11:00:00 10.1 26 Noroeste 42 Noroeste 0 -- -- 56
2019-10-03 10:00:00 8.7 32 Noroeste 42 Noroeste 0 -- -- 62
2019-10-03 09:00:00 8.1 32 Noroeste 45 Noroeste 0 -- -- 64
2019-10-03 08:00:00 8 33 Noroeste 50 Noroeste 0 -- -- 65
2019-10-03 07:00:00 8.2 35 Noroeste 48 Noroeste 0 -- -- 65
2019-10-03 06:00:00 8.5 31 Noroeste 42 Noroeste 0 -- -- 66
2019-10-03 05:00:00 9.2 28 Noroeste 41 Noroeste 0 -- -- 64
2019-10-03 04:00:00 10.2 28 Noroeste 37 Noroeste 0 -- -- 61
2019-10-03 03:00:00 11.5 26 Noroeste 38 Noroeste 0 -- -- 56
2019-10-03 02:00:00 12.8 22 Noroeste 33 Noroeste 0 -- -- 51
2019-10-03 01:00:00 14.5 23 Noroeste 31 Noroeste 0 -- -- 46
2019-10-03 00:00:00 16 18 Noroeste 27 Noroeste 0 -- -- 42
2019-10-02 23:00:00 17.7 9 Norte 32 Noroeste 0 -- -- 34
2019-10-02 22:00:00 17.8 14 Noroeste 46 Noroeste 0 -- -- 36
2019-10-02 21:00:00 18 15 Este 46 Sudeste 0 -- -- 37
2019-10-02 20:00:00 18.9 13 Este 41 Norte 0 -- -- 39
2019-10-02 19:00:00 19.9 14 Oeste 37 Noroeste 0 -- -- 34
2019-10-02 18:00:00 20.9 21 Noroeste 41 Norte 0 -- -- 32
2019-10-02 17:00:00 22 15 Noroeste 37 Noroeste 0 -- -- 32
2019-10-02 16:00:00 22.3 17 Noroeste 35 Noroeste 0 -- -- 30
2019-10-02 15:00:00 22.1 15 Noroeste 31 Noroeste 0 -- -- 30
2019-10-02 14:00:00 22 10 Oeste 30 Sur 0 -- -- 36
2019-10-02 13:00:00 21.7 6 Sur 11 Sur 0 -- -- 38
2019-10-02 12:00:00 20.3 6 Sur 12 Sudeste 0 -- -- 42
2019-10-02 11:00:00 17.5 5 Sudeste 19 Noroeste 0 -- -- 49
2019-10-02 10:00:00 12 12 Noroeste 29 Noroeste 0 -- -- 65
2019-10-02 09:00:00 9.9 13 Noroeste 32 Noroeste 0 -- -- 77
2019-10-02 08:00:00 10 17 Noroeste 26 Noroeste 0 -- -- 74
2019-10-02 07:00:00 10.5 16 Noroeste 36 Noroeste 0 -- -- 74
2019-10-02 06:00:00 10.7 23 Noroeste 41 Noroeste 0 -- -- 73
2019-10-02 05:00:00 11.1 24 Noroeste 38 Noroeste 0 -- -- 73
2019-10-02 04:00:00 11.8 22 Noroeste 36 Noroeste 0 -- -- 73
2019-10-02 03:00:00 12.6 18 Noroeste 37 Noroeste 0 -- -- 73
2019-10-02 02:00:00 13.2 22 Noroeste 32 Noroeste 0 -- -- 77
2019-10-02 01:00:00 14.2 24 Noroeste 36 Noroeste 0 -- -- 75
2019-10-02 00:00:00 14.7 22 Noroeste 37 Noroeste 0 -- -- 77
2019-10-01 23:00:00 15.6 29 Noroeste 36 Noroeste 0 -- -- 76
2019-10-01 22:00:00 16.9 27 Noroeste 36 Noroeste 0 -- -- 71
2019-10-01 21:00:00 18.6 13 Noroeste 33 Noroeste 0 -- -- 63
2019-10-01 20:00:00 19.7 21 Noroeste 28 Noroeste 0 -- -- 60
2019-10-01 19:00:00 23.9 11 Sudeste 30 Sur 0 -- -- 45
2019-10-01 18:00:00 25.7 12 Sudeste 29 Sudoeste 0 -- -- 41
2019-10-01 17:00:00 26.8 14 Sur 29 Sudoeste 0 -- -- 33
2019-10-01 16:00:00 27.7 12 Sur 31 Sur 0 -- -- 31
2019-10-01 15:00:00 27.8 18 Sur 32 Sur 0 -- -- 31
2019-10-01 14:00:00 27.3 9 Sur 15 Sudoeste 0 -- -- 35
2019-10-01 13:00:00 25.8 8 Sur 12 Sudoeste 0 -- -- 35
2019-10-01 12:00:00 20.9 4 Noroeste 28 Noroeste 0 -- -- 48
2019-10-01 11:00:00 17.1 18 Noroeste 38 Noroeste 0 -- -- 57
2019-10-01 10:00:00 13.9 24 Noroeste 45 Noroeste 0 -- -- 69
2019-10-01 09:00:00 11.6 36 Noroeste 48 Noroeste 0 -- -- 78
2019-10-01 08:00:00 11.8 35 Noroeste 46 Noroeste 0 -- -- 77
2019-10-01 07:00:00 11.9 35 Noroeste 51 Noroeste 0 -- -- 76
2019-10-01 06:00:00 12.6 38 Noroeste 48 Noroeste 0 -- -- 74
2019-10-01 05:00:00 12.9 36 Noroeste 53 Noroeste 0 -- -- 73
2019-10-01 04:00:00 13.2 34 Noroeste 46 Noroeste 0 -- -- 72
2019-10-01 03:00:00 14.1 33 Noroeste 42 Noroeste 0 -- -- 69
2019-10-01 02:00:00 14.7 31 Noroeste 39 Noroeste 0 -- -- 67
2019-10-01 01:00:00 15.5 28 Noroeste 36 Noroeste 0 -- -- 65
2019-10-01 00:00:00 17 24 Noroeste 36 Noroeste 0 -- -- 58
2019-09-30 23:00:00 18.3 19 Noroeste 30 Noroeste 0 -- -- 54
2019-09-30 22:00:00 19.5 16 Noroeste 24 Noroeste 0 -- -- 51
2019-09-30 21:00:00 21.6 10 Noroeste 18 Noroeste 0 -- -- 44
2019-09-30 20:00:00 23.1 9 Sudeste 12 Este 0 -- -- 39
2019-09-30 19:00:00 25.3 9 Sur 18 Sur 0 -- -- 34
2019-09-30 18:00:00 27.1 8 Sudeste 18 Oeste 0 -- -- 31
2019-09-30 17:00:00 28.3 9 Sur 25 Sur 0 -- -- 29
2019-09-30 16:00:00 28.5 14 Sur 31 Sur 0 -- -- 29
2019-09-30 15:00:00 28.3 16 Sur 31 Sudoeste 0 -- -- 30
2019-09-30 14:00:00 27.4 13 Sur 23 Sur 0 -- -- 33
2019-09-30 13:00:00 26.2 8 Sur 13 Sudoeste 0 -- -- 35
2019-09-30 12:00:00 22 4 Este 22 Noroeste 0 -- -- 44
2019-09-30 11:00:00 16.9 20 Noroeste 44 Noroeste 0 -- -- 55
2019-09-30 10:00:00 13.7 26 Noroeste 48 Noroeste 0 -- -- 66
2019-09-30 09:00:00 11.6 36 Noroeste 47 Noroeste 0 -- -- 74
2019-09-30 08:00:00 11.6 37 Noroeste 50 Noroeste 0 -- -- 75
2019-09-30 07:00:00 12.1 33 Noroeste 50 Noroeste 0 -- -- 73
2019-09-30 06:00:00 12.4 35 Noroeste 45 Noroeste 0 -- -- 73
2019-09-30 05:00:00 13.3 35 Noroeste 45 Noroeste 0 -- -- 70
2019-09-30 04:00:00 13.7 29 Noroeste 43 Noroeste 0 -- -- 70
2019-09-30 03:00:00 14.4 29 Noroeste 43 Noroeste 0 -- -- 68
2019-09-30 02:00:00 15.2 27 Noroeste 46 Noroeste 0 -- -- 65
2019-09-30 01:00:00 16.3 33 Noroeste 44 Noroeste 0 -- -- 61
2019-09-30 00:00:00 17.2 32 Noroeste 43 Noroeste 0 -- -- 59
2019-09-29 23:00:00 18.5 26 Noroeste 35 Noroeste 0 -- -- 55
2019-09-29 22:00:00 20 17 Noroeste 26 Noroeste 0 -- -- 51
2019-09-29 21:00:00 22.2 2 Norte 10 Noroeste 0 -- -- 42
2019-09-29 20:00:00 23.8 9 Sudeste 23 Sur 0 -- -- 38
2019-09-29 19:00:00 25 10 Sudeste 42 Sudoeste 0 -- -- 38
2019-09-29 18:00:00 26.9 13 Sur 25 Sur 0 -- -- 35
2019-09-29 17:00:00 28.4 12 Sur 26 Sur 0 -- -- 31
2019-09-29 16:00:00 28.9 12 Sur 28 Sudoeste 0 -- -- 28
2019-09-29 15:00:00 28.6 15 Sur 32 Nordeste 0 -- -- 29
2019-09-29 14:00:00 27.8 9 Sudeste 17 Sudoeste 0 -- -- 34
2019-09-29 13:00:00 25.3 6 Sudeste 11 Sudeste 0 -- -- 41
2019-09-29 12:00:00 20 4 Norte 28 Norte 0 -- -- 51
2019-09-29 11:00:00 16.1 15 Noroeste 37 Noroeste 0 -- -- 61
2019-09-29 10:00:00 13.2 26 Noroeste 46 Noroeste 0 -- -- 72
2019-09-29 09:00:00 10.7 36 Noroeste 51 Noroeste 0 -- -- 83
2019-09-29 08:00:00 10.9 38 Noroeste 50 Noroeste 0 -- -- 82
2019-09-29 07:00:00 11 35 Noroeste 49 Noroeste 0 -- -- 83
2019-09-29 06:00:00 11.7 36 Noroeste 49 Noroeste 0 -- -- 81
2019-09-29 05:00:00 12.1 33 Noroeste 45 Noroeste 0 -- -- 80
2019-09-29 04:00:00 12.3 29 Noroeste 38 Noroeste 0 -- -- 80
2019-09-29 03:00:00 13 24 Noroeste 36 Noroeste 0 -- -- 78
2019-09-29 02:00:00 13.8 23 Noroeste 37 Noroeste 0 -- -- 74
2019-09-29 01:00:00 14.6 23 Noroeste 37 Noroeste 0 -- -- 72
2019-09-29 00:00:00 15.7 24 Noroeste 32 Noroeste 0 -- -- 67
2019-09-28 23:00:00 17 16 Noroeste 29 Noroeste 0 -- -- 63
2019-09-28 22:00:00 18.3 17 Noroeste 23 Noroeste 0 -- -- 58
2019-09-28 21:00:00 20.6 0 Calma 11 Sudeste 0 -- -- 52
2019-09-28 20:00:00 21.9 8 Sur 22 Sur 0 -- -- 48
2019-09-28 19:00:00 23.2 7 Sur 22 Sur 0 -- -- 46
2019-09-28 18:00:00 25 11 Sur 26 Sudoeste 0 -- -- 42
2019-09-28 17:00:00 25.5 6 Este 24 Sur 0 -- -- 38
2019-09-28 16:00:00 25.9 13 Sur 29 Sur 0 -- -- 38
2019-09-28 15:00:00 24.9 16 Sur 29 Sur 0 -- -- 40
2019-09-28 14:00:00 24.9 8 Sur 27 Sudoeste 0 -- -- 43
2019-09-28 13:00:00 24 8 Sur 16 Sur 0 -- -- 47
2019-09-28 12:00:00 21.6 5 Sudeste 22 Noroeste 0 -- -- 51
2019-09-28 11:00:00 15.7 16 Noroeste 36 Noroeste 0 -- -- 58
2019-09-28 10:00:00 12.4 23 Noroeste 41 Noroeste 0 -- -- 71
2019-09-28 09:00:00 10.6 29 Noroeste 44 Noroeste 0 -- -- 78
2019-09-28 08:00:00 10.6 30 Noroeste 44 Noroeste 0 -- -- 79
2019-09-28 07:00:00 11 31 Noroeste 48 Noroeste 0 -- -- 78
2019-09-28 06:00:00 11.8 30 Noroeste 44 Noroeste 0 -- -- 75
2019-09-28 05:00:00 12.6 32 Noroeste 44 Noroeste 0 -- -- 72
2019-09-28 04:00:00 12.9 31 Noroeste 42 Noroeste 0 -- -- 73
2019-09-28 03:00:00 13.9 23 Noroeste 40 Noroeste 0 -- -- 69
2019-09-28 02:00:00 14.2 27 Noroeste 38 Noroeste 0 -- -- 69
2019-09-28 01:00:00 15.8 26 Noroeste 38 Noroeste 0 -- -- 63
2019-09-28 00:00:00 16.8 28 Noroeste 41 Noroeste 0 -- -- 60
2019-09-27 23:00:00 18 19 Noroeste 29 Noroeste 0 -- -- 56
2019-09-27 22:00:00 19.7 13 Noroeste 18 Noroeste 0 -- -- 48
2019-09-27 21:00:00 21.8 0 Calma 10 Este 0 -- -- 39
2019-09-27 20:00:00 23.1 7 Este 17 Este 0 -- -- 39
2019-09-27 19:00:00 24.4 6 Este 17 Sur 0 -- -- 42
2019-09-27 18:00:00 26.2 4 Este 31 Sur 0 -- -- 34
2019-09-27 17:00:00 27.5 7 Sur 22 Sudoeste 0 -- -- 29
2019-09-27 16:00:00 27.8 12 Sur 32 Sur 0 -- -- 29
2019-09-27 15:00:00 27.7 14 Sur 29 Sudoeste 0 -- -- 30
2019-09-27 14:00:00 26.6 13 Sur 28 Sudoeste 0 -- -- 36
2019-09-27 13:00:00 26 8 Sur 13 Sudeste 0 -- -- 41
2019-09-27 12:00:00 21.6 3 Este 22 Noroeste 0 -- -- 55
2019-09-27 11:00:00 17.3 17 Noroeste 35 Noroeste 0 -- -- 66
2019-09-27 10:00:00 14.1 27 Noroeste 39 Noroeste 0 -- -- 77
2019-09-27 09:00:00 12.3 27 Noroeste 43 Noroeste 0 -- -- 84
2019-09-27 08:00:00 12.3 33 Noroeste 43 Noroeste 0 -- -- 84
2019-09-27 07:00:00 12.4 32 Noroeste 43 Noroeste 0 -- -- 85
2019-09-27 06:00:00 12.9 30 Noroeste 39 Noroeste 0 -- -- 83
2019-09-27 05:00:00 13.6 30 Noroeste 39 Noroeste 0 -- -- 80
2019-09-27 04:00:00 14 28 Noroeste 40 Noroeste 0 -- -- 79
2019-09-27 03:00:00 14.5 26 Noroeste 36 Noroeste 0 -- -- 77
2019-09-27 02:00:00 15.3 22 Noroeste 33 Noroeste 0 -- -- 75
2019-09-27 01:00:00 16.3 17 Noroeste 34 Noroeste 0 -- -- 71
2019-09-27 00:00:00 17.3 22 Noroeste 35 Noroeste 0 -- -- 67
2019-09-26 23:00:00 18.1 21 Noroeste 32 Noroeste 0 -- -- 64
2019-09-26 22:00:00 19.1 12 Noroeste 17 Noroeste 0 -- -- 60
2019-09-26 21:00:00 20.7 4 Este 8 Sur 0 -- -- 53
2019-09-26 20:00:00 22.7 8 Sur 13 Sur 0 -- -- 48
2019-09-26 19:00:00 24 5 Sudoeste 18 Sur 0 -- -- 43
2019-09-26 18:00:00 25.1 9 Sur 23 Sur 0 -- -- 41
2019-09-26 17:00:00 25.6 8 Sudeste 24 Sudoeste 0 -- -- 41
2019-09-26 16:00:00 25.8 14 Sur 24 Sur 0 -- -- 41
2019-09-26 15:00:00 25.2 13 Sur 21 Sur 0 -- -- 41
2019-09-26 14:00:00 24.7 7 Sudeste 17 Sur 0 -- -- 42
2019-09-26 13:00:00 23.2 9 Sur 17 Sur 0 -- -- 45
2019-09-26 12:00:00 22.3 8 Sur 15 Sudoeste 0 -- -- 45
2019-09-26 11:00:00 16.9 9 Noroeste 27 Noroeste 0 -- -- 63
2019-09-26 10:00:00 13.5 20 Noroeste 37 Noroeste 0 -- -- 74
2019-09-26 09:00:00 11.7 29 Noroeste 38 Noroeste 0 -- -- 82
2019-09-26 08:00:00 11.5 29 Noroeste 41 Noroeste 0 -- -- 84
2019-09-26 07:00:00 11.9 27 Noroeste 40 Noroeste 0 -- -- 81
2019-09-26 06:00:00 12.4 28 Noroeste 35 Noroeste 0 -- -- 80
2019-09-26 05:00:00 13 24 Noroeste 35 Noroeste 0 -- -- 77
2019-09-26 04:00:00 13.6 22 Noroeste 36 Noroeste 0 -- -- 75
2019-09-26 03:00:00 14.1 24 Noroeste 36 Noroeste 0 -- -- 74
2019-09-26 02:00:00 15.1 27 Noroeste 34 Noroeste 0 -- -- 68
2019-09-26 01:00:00 15.6 22 Noroeste 28 Noroeste 0 -- -- 66
2019-09-26 00:00:00 16.2 16 Noroeste 26 Noroeste 0 -- -- 64
2019-09-25 23:00:00 16.4 4 Este 13 Noroeste 0 -- -- 62
2019-09-25 22:00:00 17.4 4 Este 12 Sudoeste 0 -- -- 58
2019-09-25 21:00:00 19.1 5 Sur 13 Sur 0 -- -- 51
2019-09-25 20:00:00 20.2 8 Sur 20 Sur 0 -- -- 48
2019-09-25 19:00:00 21.1 12 Sur 25 Sudoeste 0 -- -- 45
2019-09-25 18:00:00 22.1 15 Sur 24 Sur 0 -- -- 43
2019-09-25 17:00:00 22.3 11 Sur 26 Sur 0 -- -- 43
2019-09-25 16:00:00 22.6 13 Sur 27 Sur 0 -- -- 43
2019-09-25 15:00:00 24.1 13 Sur 25 Sudoeste 0 -- -- 40
2019-09-25 14:00:00 23.5 11 Sur 23 Sur 0 -- -- 38
2019-09-25 13:00:00 22.9 13 Sur 22 Sur 0 -- -- 42
2019-09-25 12:00:00 22.4 8 Sur 12 Sur 0 -- -- 49
2019-09-25 11:00:00 19.4 5 Sudeste 16 Noroeste 0 -- -- 58
2019-09-25 10:00:00 15 13 Noroeste 26 Noroeste 0 -- -- 70
2019-09-25 09:00:00 13.1 17 Noroeste 31 Noroeste 0 -- -- 79
2019-09-25 08:00:00 13.3 17 Noroeste 27 Noroeste 0 -- -- 79
2019-09-25 07:00:00 13.8 17 Noroeste 27 Noroeste 0 -- -- 75
2019-09-25 06:00:00 14.2 18 Noroeste 31 Noroeste 0 -- -- 73
2019-09-25 05:00:00 14.4 19 Noroeste 33 Noroeste 0 -- -- 72
2019-09-25 04:00:00 14.3 19 Noroeste 34 Noroeste 0 -- -- 72
2019-09-25 03:00:00 14.6 21 Noroeste 40 Noroeste 0 -- -- 71
2019-09-25 02:00:00 15.3 27 Noroeste 37 Noroeste 0 -- -- 68
2019-09-25 01:00:00 16 23 Noroeste 33 Noroeste 0 -- -- 66
2019-09-25 00:00:00 17.6 18 Noroeste 25 Noroeste 0 -- -- 62
2019-09-24 23:00:00 19 10 Noroeste 16 Noroeste 0 -- -- 56
2019-09-24 22:00:00 21.5 8 Oeste 17 Noroeste 0 -- -- 45
2019-09-24 21:00:00 21.6 4 Noroeste 9 Sur 0 -- -- 47
2019-09-24 20:00:00 23.1 0 Calma 15 Sur 0 -- -- 46
2019-09-24 19:00:00 24.3 5 Sur 26 Sur 0 -- -- 42
2019-09-24 18:00:00 25.6 11 Sur 29 Sur 0 -- -- 39
2019-09-24 17:00:00 26.4 9 Sudeste 27 Sur 0 -- -- 39
2019-09-24 16:00:00 26.3 12 Sur 32 Sur 0 -- -- 38
2019-09-24 15:00:00 26.5 15 Sur 27 Sudoeste 0 -- -- 37
2019-09-24 14:00:00 25.5 10 Sur 25 Sudoeste 0 -- -- 37
2019-09-24 13:00:00 25 7 Sudeste 14 Sur 0 -- -- 39
2019-09-24 12:00:00 22.5 9 Sur 12 Sur 0 -- -- 47
2019-09-24 11:00:00 16.3 7 Noroeste 27 Noroeste 0 -- -- 64
2019-09-24 10:00:00 13.2 16 Noroeste 42 Noroeste 0 -- -- 76
2019-09-24 09:00:00 11.2 26 Noroeste 41 Noroeste 0 -- -- 84
2019-09-24 08:00:00 11.2 26 Noroeste 40 Noroeste 0 -- -- 84
2019-09-24 07:00:00 11.5 26 Noroeste 39 Noroeste 0 -- -- 83
2019-09-24 06:00:00 11.6 23 Noroeste 37 Noroeste 0 -- -- 83
2019-09-24 05:00:00 12 23 Noroeste 41 Noroeste 0 -- -- 81
2019-09-24 04:00:00 12.4 25 Noroeste 39 Noroeste 0 -- -- 79
2019-09-24 03:00:00 12.7 30 Noroeste 46 Noroeste 0 -- -- 78
2019-09-24 02:00:00 13.3 30 Noroeste 39 Noroeste 0 -- -- 75
2019-09-24 01:00:00 13.8 24 Noroeste 32 Noroeste 0 -- -- 74
2019-09-24 00:00:00 14.6 24 Noroeste 35 Noroeste 0 -- -- 70
2019-09-23 23:00:00 15.6 23 Noroeste 29 Noroeste 0 -- -- 65
2019-09-23 22:00:00 16.5 13 Noroeste 20 Noroeste 0 -- -- 61
2019-09-23 21:00:00 17.6 0 Calma 8 Sudoeste 0 -- -- 55
2019-09-23 20:00:00 18.9 4 Sur 15 Sur 0 -- -- 49
2019-09-23 19:00:00 20.3 6 Sur 18 Sur 0 -- -- 45
2019-09-23 18:00:00 21.3 11 Sur 24 Sudoeste 0 -- -- 43
2019-09-23 17:00:00 21.6 10 Sur 24 Sur 0 -- -- 42
2019-09-23 16:00:00 21.6 9 Sudoeste 29 Sudoeste 0 -- -- 42
2019-09-23 15:00:00 23.1 9 Nordeste 24 Este 0 -- -- 36
2019-09-23 14:00:00 22.2 9 Sur 21 Sur 0 -- -- 39
2019-09-23 13:00:00 21.3 8 Sur 14 Sur 0 -- -- 48
2019-09-23 12:00:00 19.2 10 Sur 17 Sur 0 -- -- 57
2019-09-23 11:00:00 14 12 Noroeste 30 Noroeste 0 -- -- 74
2019-09-23 10:00:00 12 23 Noroeste 34 Noroeste 0 -- -- 83
2019-09-23 09:00:00 11 22 Noroeste 33 Noroeste 0 -- -- 88
2019-09-23 08:00:00 11 26 Noroeste 35 Noroeste 0 -- -- 89
2019-09-23 07:00:00 11.3 25 Noroeste 36 Noroeste 0 -- -- 89
2019-09-23 06:00:00 11.6 25 Noroeste 36 Noroeste 0 -- -- 90
2019-09-23 05:00:00 12.1 25 Noroeste 35 Noroeste 0 -- -- 89
2019-09-23 04:00:00 12.4 25 Noroeste 38 Noroeste 0 -- -- 89
2019-09-23 03:00:00 12.8 27 Noroeste 34 Noroeste 0 -- -- 89
2019-09-23 02:00:00 13.3 23 Noroeste 32 Noroeste 0 -- -- 87
2019-09-23 01:00:00 13.9 24 Noroeste 33 Noroeste 0 -- -- 87
2019-09-23 00:00:00 14.7 14 Noroeste 28 Noroeste 0 -- -- 85
2019-09-22 23:00:00 15.5 19 Noroeste 28 Noroeste 0 -- -- 83
2019-09-22 22:00:00 16.7 13 Noroeste 26 Noroeste 0 -- -- 80
2019-09-22 21:00:00 18 13 Noroeste 21 Noroeste 0 -- -- 72
2019-09-22 20:00:00 19.6 9 Noroeste 13 Noroeste 0 -- -- 67
2019-09-22 19:00:00 20.8 6 Noroeste 15 Sur 0 -- -- 62
2019-09-22 18:00:00 21.5 8 Sur 24 Sur 0 -- -- 60
2019-09-22 17:00:00 21.2 7 Sudeste 26 Sur 0 -- -- 69
2019-09-22 16:00:00 21.8 18 Sur 28 Sur 0 -- -- 59
2019-09-22 15:00:00 22.2 8 Este 14 Sudeste 0 -- -- 65
2019-09-22 14:00:00 20.9 5 Sudeste 17 Este 0 -- -- 67
2019-09-22 13:00:00 19.4 7 Este 16 Sudeste 0 -- -- 74
2019-09-22 12:00:00 18.3 0 Calma 8 Sudeste 0 -- -- 81
2019-09-22 11:00:00 17.4 5 Sur 14 Sudoeste 0 -- -- 89
2019-09-22 10:00:00 16.7 3 Sur 12 Sudoeste 0 -- -- 89
2019-09-22 09:00:00 16.2 6 Noroeste 21 Noroeste 0 -- -- 88
2019-09-22 08:00:00 16 13 Noroeste 25 Noroeste 0 -- -- 88
2019-09-22 07:00:00 15.9 9 Noroeste 22 Noroeste 0 -- -- 89
2019-09-22 06:00:00 15.9 11 Noroeste 21 Noroeste 0 -- -- 89
2019-09-22 05:00:00 15.9 11 Noroeste 24 Noroeste 0 -- -- 87
2019-09-22 04:00:00 16.2 19 Noroeste 29 Noroeste 0 -- -- 85
2019-09-22 03:00:00 16.4 16 Noroeste 26 Noroeste 0 -- -- 82
2019-09-22 02:00:00 16.9 6 Noroeste 20 Noroeste 0 -- -- 79
2019-09-22 01:00:00 17 9 Noroeste 23 Noroeste 0 -- -- 79
2019-09-22 00:00:00 17.2 14 Noroeste 22 Noroeste 0 -- -- 78
2019-09-21 23:00:00 17.7 10 Noroeste 18 Noroeste 0 -- -- 76
2019-09-21 22:00:00 18.3 8 Noroeste 16 Noroeste 0 -- -- 75
2019-09-21 21:00:00 19.2 0 Calma 6 Noroeste 0 -- -- 73
2019-09-21 20:00:00 20.2 2 Noroeste 9 Oeste 0 -- -- 69
2019-09-21 19:00:00 20.9 4 Oeste 9 Noroeste 0 -- -- 64
2019-09-21 18:00:00 21.8 0 Calma 7 Sur 0 -- -- 63
2019-09-21 17:00:00 21.5 3 Sur 14 Oeste 0 -- -- 64
2019-09-21 16:00:00 18.6 10 Este 18 Sur 2.4 -- -- 81
2019-09-21 15:00:00 22.3 7 Sur 21 Sur 0 -- -- 52
2019-09-21 14:00:00 23.3 8 Sur 20 Sur 0 -- -- 54
2019-09-21 13:00:00 20.6 8 Noroeste 24 Noroeste 0 -- -- 63
2019-09-21 12:00:00 17.4 14 Noroeste 29 Noroeste 0 -- -- 76
2019-09-21 11:00:00 16.1 18 Norte 27 Norte 0 -- -- 82
2019-09-21 10:00:00 15.7 9 Norte 35 Noroeste 0.8 -- -- 86
2019-09-21 09:00:00 15.9 19 Noroeste 26 Noroeste 0 -- -- 81
2019-09-21 08:00:00 15.8 13 Noroeste 28 Noroeste 0 -- -- 81
2019-09-21 07:00:00 15.9 11 Noroeste 25 Noroeste 0 -- -- 80
2019-09-21 06:00:00 15.9 17 Noroeste 27 Noroeste 0 -- -- 80
2019-09-21 05:00:00 16.1 15 Noroeste 27 Noroeste 0 -- -- 80
2019-09-21 04:00:00 16.5 16 Noroeste 28 Noroeste 0 -- -- 78
2019-09-21 03:00:00 16.9 17 Noroeste 29 Noroeste 0 -- -- 76
2019-09-21 02:00:00 17.6 19 Noroeste 31 Noroeste 0 -- -- 72
2019-09-21 01:00:00 18.3 13 Noroeste 19 Noroeste 0 -- -- 70
2019-09-21 00:00:00 18.8 6 Noroeste 13 Noroeste 0 -- -- 69
2019-09-20 23:00:00 19.9 10 Sudoeste 22 Sudoeste 0 -- -- 63
2019-09-20 22:00:00 20.8 13 Sudoeste 19 Sur 0 -- -- 58
2019-09-20 21:00:00 21.8 13 Sur 23 Sudoeste 0 -- -- 54
2019-09-20 20:00:00 23.1 13 Sudoeste 27 Sur 0 -- -- 47
2019-09-20 19:00:00 23.8 17 Sur 34 Sur 0 -- -- 45
2019-09-20 18:00:00 24.8 12 Sur 22 Sur 0 -- -- 43
2019-09-20 17:00:00 24.8 13 Sur 19 Sur 0 -- -- 46
2019-09-20 16:00:00 24.9 8 Sudeste 22 Sur 0 -- -- 47
2019-09-20 15:00:00 25 10 Sudoeste 17 Sur 0 -- -- 46
2019-09-20 14:00:00 24 13 Sur 19 Sur 0 -- -- 47
2019-09-20 13:00:00 21.3 2 Este 21 Noroeste 0 -- -- 64
2019-09-20 12:00:00 18.6 13 Noroeste 29 Noroeste 0 -- -- 71
2019-09-20 11:00:00 16.2 21 Noroeste 34 Noroeste 0 -- -- 81
2019-09-20 10:00:00 15.3 22 Noroeste 35 Noroeste 0 -- -- 83
2019-09-20 09:00:00 14.9 26 Noroeste 37 Noroeste 0 -- -- 85
2019-09-20 08:00:00 14.6 27 Noroeste 41 Noroeste 0 -- -- 86
2019-09-20 07:00:00 14.5 30 Noroeste 37 Noroeste 0 -- -- 87
2019-09-20 06:00:00 14.7 27 Noroeste 39 Noroeste 0 -- -- 87
2019-09-20 05:00:00 15.2 28 Noroeste 37 Noroeste 0 -- -- 86
2019-09-20 04:00:00 15.3 26 Noroeste 37 Noroeste 0 -- -- 87
2019-09-20 03:00:00 15.5 24 Noroeste 36 Noroeste 0 -- -- 88
2019-09-20 02:00:00 15.8 24 Noroeste 35 Noroeste 0 -- -- 86
2019-09-20 01:00:00 16.1 23 Noroeste 35 Noroeste 0 -- -- 85
2019-09-20 00:00:00 16.2 25 Noroeste 34 Noroeste 0 -- -- 85
2019-09-19 23:00:00 16.2 22 Noroeste 32 Noroeste 0 -- -- 86
2019-09-19 22:00:00 16.4 22 Noroeste 34 Noroeste 0 -- -- 86
2019-09-19 21:00:00 16.7 25 Noroeste 35 Noroeste 0 -- -- 83
2019-09-19 20:00:00 17.3 19 Norte 40 Noroeste 0 -- -- 77
2019-09-19 19:00:00 17 31 Noroeste 42 Noroeste 0.4 -- -- 84
2019-09-19 18:00:00 16.9 25 Noroeste 37 Noroeste 4.8 -- -- 84
2019-09-19 17:00:00 19.7 24 Noroeste 44 Noroeste 1.2 -- -- 65
2019-09-19 16:00:00 24.5 7 Este 23 Sur 0 -- -- 44
2019-09-19 15:00:00 26.8 13 Sur 26 Sudoeste 0 -- -- 39
2019-09-19 14:00:00 26.8 6 Sur 23 Sur 0 -- -- 38
2019-09-19 13:00:00 25.2 13 Sur 22 Sur 0 -- -- 44
2019-09-19 12:00:00 23.8 7 Sudeste 17 Noroeste 0 -- -- 48
2019-09-19 11:00:00 17.8 15 Noroeste 29 Noroeste 0 -- -- 64
2019-09-19 10:00:00 16.3 16 Noroeste 34 Noroeste 0 -- -- 69
2019-09-19 09:00:00 14.5 22 Noroeste 39 Noroeste 0 -- -- 75
2019-09-19 08:00:00 14.4 30 Noroeste 42 Noroeste 0 -- -- 76
2019-09-19 07:00:00 14.7 28 Noroeste 36 Noroeste 0 -- -- 75
2019-09-19 06:00:00 15.4 26 Noroeste 39 Noroeste 0 -- -- 72
2019-09-19 05:00:00 15.8 31 Noroeste 43 Noroeste 0 -- -- 70
2019-09-19 04:00:00 16.4 28 Noroeste 43 Noroeste 0 -- -- 68
2019-09-19 03:00:00 16.5 30 Noroeste 42 Noroeste 0 -- -- 68
2019-09-19 02:00:00 17.4 27 Noroeste 36 Noroeste 0 -- -- 64
2019-09-19 01:00:00 18.4 24 Noroeste 33 Noroeste 0 -- -- 60
2019-09-19 00:00:00 19.4 20 Noroeste 27 Noroeste 0 -- -- 58
2019-09-18 23:00:00 21 11 Norte 30 Noroeste 0 -- -- 52
2019-09-18 22:00:00 21.9 7 Noroeste 19 Noroeste 0 -- -- 55
2019-09-18 21:00:00 22.8 6 Sudeste 12 Sur 0 -- -- 48
2019-09-18 20:00:00 24.6 3 Sur 18 Sur 0 -- -- 44
2019-09-18 19:00:00 26 5 Sur 27 Sur 0 -- -- 37
2019-09-18 18:00:00 27.6 6 Sudeste 27 Sudoeste 0 -- -- 37
2019-09-18 17:00:00 27.9 11 Sur 28 Sur 0 -- -- 36
2019-09-18 16:00:00 28.2 15 Sur 33 Sudoeste 0 -- -- 36
2019-09-18 15:00:00 28.8 15 Sur 32 Sur 0 -- -- 35
2019-09-18 14:00:00 27.3 13 Sur 28 Sur 0 -- -- 40
2019-09-18 13:00:00 28.6 12 Sur 19 Sudoeste 0 -- -- 40
2019-09-18 12:00:00 23.2 8 Noroeste 27 Noroeste 0 -- -- 52
2019-09-18 11:00:00 20.3 22 Noroeste 38 Noroeste 0 -- -- 59
2019-09-18 10:00:00 18.4 24 Noroeste 44 Noroeste 0 -- -- 66
2019-09-18 09:00:00 16 33 Noroeste 46 Noroeste 0 -- -- 74
2019-09-18 08:00:00 16 32 Noroeste 45 Noroeste 0 -- -- 74
2019-09-18 07:00:00 16.8 27 Noroeste 39 Noroeste 0 -- -- 72
2019-09-18 06:00:00 18.1 24 Noroeste 39 Noroeste 0 -- -- 66
2019-09-18 05:00:00 18.8 21 Norte 40 Noroeste 0 -- -- 63
2019-09-18 04:00:00 19.8 20 Norte 33 Norte 0 -- -- 59
2019-09-18 03:00:00 20.3 16 Norte 43 Norte 0 -- -- 58
2019-09-18 02:00:00 20.7 21 Norte 36 Noroeste 0 -- -- 60
2019-09-18 01:00:00 19.9 22 Noroeste 33 Noroeste 0 -- -- 67
2019-09-18 00:00:00 20.9 15 Noroeste 27 Noroeste 0 -- -- 63